Weather observations for the past three days for
Fort Dodge
Imperial (Metric)
Date Time (cdt) Wind (mph) Vis. (mi.) Weather Sky Cond. Temperature (ºF) Relative Humidity Wind Chill (°F) Heat Index (°F) Pressure Precipitation (in)
Air Dwpt 6 hour altimeter (in) sea level (mb) 1 hr 3 hr 6 hr
Max. Min.
06 12:56 SE 10 10.00 Overcast OVC012 77 73 79 72 88% 78 30.06 1018.5
06 11:56 SE 10 10.00 Overcast OVC012 78.1 73 85% 81 30.07 1018.8
06 10:56 SE 12 10.00 Overcast OVC012 75.9 72 88% 76 30.06 1018.3
06 09:56 SE 12 10.00 Overcast OVC012 75.9 72 88% 76 30.06 1018.3
06 08:56 SE 10 G 16 10.00 Fair CLR 73.9 71.1 91% 30.07 1018.5
06 07:56 SE 8 10.00 Fair CLR 72 71.1 97% 30.06 1018.4
06 06:56 SE 7 10.00 Overcast OVC010 72 71.1 73 71.1 97% 30.04 1017.6
06 05:56 SE 8 10.00 Overcast OVC010 72 71.1 97% 30.04 1017.5
06 04:56 SE 7 10.00 Mostly Cloudy BKN016 71.1 71.1 100% 30.04 1017.6
06 03:56 E 8 8.00 Fair CLR 71.1 71.1 100% 30.03 1017.2
06 02:56 SE 7 10.00 Fair CLR 72 72 100% 30.02 1017.0
06 01:56 SE 9 10.00 Fair CLR 73 72 96% 30.03 1017.3
06 00:56 E 9 10.00 Fair CLR 73 73 82.9 73 100% 30.03 1017.2
05 23:56 SE 7 10.00 Fair CLR 73.9 73.9 100% 30.02 1017.1
05 22:56 E 9 8.00 Fair CLR 75 75 100% 72 30.02 1017.1
05 21:56 E 6 9.00 Fair CLR 75.9 75.9 100% 75 30.02 1016.8
05 20:56 E 6 9.00 Fair CLR 77 77 100% 78 29.99 1016.1
05 19:56 E 5 10.00 Fair CLR 80.1 77 90% 86 29.98 1015.5
05 18:56 E 8 10.00 Fair CLR 82.9 77 86 79 82% 92 29.98 1015.3
05 17:56 E 7 10.00 A Few Clouds FEW024 84.9 77 77% 95 29.98 1015.3
05 16:56 SE 8 10.00 A Few Clouds FEW026 84.9 75.9 75% 94 29.97 1015.0
05 15:56 SE 9 10.00 Fair CLR 84 73 70% 90 29.97 1015.0
05 14:56 SE 7 10.00 Fair CLR 82.9 72 70% 88 29.99 1015.8
05 12:56 E 5 10.00 Fair CLR 79 69.1 79 72 72% 82 30.02 1016.9
05 11:56 NE 7 10.00 Fair CLR 78.1 69.1 74% 80 30.03 1017.2
05 10:56 N 8 10.00 Partly Cloudy SCT026 SCT031 75.9 71.1 85% 76 30.04 1017.6
05 09:56 N 5 10.00 NULL NULL 78.1 75 90% 81 30.03 1017.1
05 08:56 Calm 10.00 Fair CLR 75 73.9 96% 73 30.02 1016.9
05 07:56 NE 6 8.00 Fair CLR 73 73 100% 29.98 1015.5
05 06:56 Calm 6.00 Fog/Mist CLR 72 72 75 72 100% 29.96 1014.7
05 05:56 Calm 7.00 Fair CLR 73 73 100% 29.95 1014.4
05 04:56 E 3 8.00 Fair CLR 73.9 73.9 100% 29.95 1014.3
05 03:56 E 5 7.00 Fair CLR 73.9 73.9 100% 29.94 1013.9
05 02:56 E 3 8.00 Fair CLR 73.9 73.9 100% 29.94 1014.2
05 01:56 E 6 8.00 Fair CLR 75 75 100% 72 29.95 1014.3
04 23:56 Calm 10.00 Fair CLR 75 75 100% 72 29.94 1014.1
04 22:56 Calm 10.00 Fair CLR 77 75.9 96% 78 29.93 1013.8
04 21:56 Calm 10.00 Fair CLR 79 77 94% 83 29.94 1013.9
04 19:56 E 3 10.00 Fair CLR 82 78.1 88% 91 29.91 1013.1
04 18:56 Calm 10.00 Fair CLR 87.1 78.1 91 87.1 75% 100 29.9 1012.8
04 17:56 S 5 10.00 Fair CLR 89.1 77 68% 102 29.9 1012.5
04 16:56 S 5 10.00 Partly Cloudy FEW039 SCT046 91 78.1 66% 106 29.89 1012.2
04 15:56 S 6 10.00 Mostly Cloudy BKN039 91 75.9 61% 103 29.9 1012.5
04 14:56 Calm 10.00 Mostly Cloudy BKN035 90 75.9 63% 102 29.89 1012.3
04 13:56 SW 7 10.00 Fair CLR 90 77 66% 103 29.89 1012.2
04 12:56 SW 7 10.00 Fair CLR 89.1 75 89.1 72 63% 99 29.9 1012.4
04 11:56 W 6 10.00 A Few Clouds FEW110 87.1 73.9 65% 95 29.91 1012.7
04 10:56 W 7 10.00 Fair CLR 86 73 65% 93 29.9 1012.5
04 09:56 W 9 10.00 Fair CLR 82.9 72 70% 88 29.89 1012.5
04 08:56 SW 7 10.00 Fair CLR 79 71.1 77% 82 29.89 1012.3
04 07:56 Calm 10.00 Fair CLR 75 70 84% 75 29.88 1012.2
04 06:56 SW 5 10.00 Fair CLR 72 69.1 79 72 91% 29.87 1011.8
04 05:56 SW 6 10.00 Mostly Cloudy BKN100 73.9 69.1 85% 29.86 1011.4
04 04:56 SW 7 10.00 Mostly Cloudy BKN095 73.9 70 88% 29.86 1011.4
04 03:56 Calm 10.00 Partly Cloudy SCT090 SCT110 73 71.1 94% 29.86 1011.4
04 02:56 S 3 10.00 Mostly Cloudy BKN085 75 70 84% 75 29.86 1011.3
04 01:56 E 3 10.00 Fair CLR 73.9 71.1 91% 29.86 1011.6
04 00:56 S 5 10.00 Fair CLR 79 70 87.1 79 74% 82 29.86 1011.4
03 23:56 S 9 10.00 Fair CLR 80.1 70 71% 83 29.85 1011.0
03 22:56 S 8 10.00 Fair CLR 80.1 71.1 74% 84 29.85 1011.1
03 21:56 S 7 10.00 Fair CLR 81 71.1 72% 85 29.85 1011.1
03 20:56 S 7 10.00 Fair CLR 82 73 74% 87 29.84 1010.7
03 19:56 S 6 10.00 Fair CLR 84 73.9 72% 91 29.82 1010.1
03 18:56 S 6 10.00 Fair CLR 86 75.9 88 73.9 72% 96 29.82 1009.9
03 17:56 S 9 G 17 10.00 Fair CLR 88 75.9 68% 99 29.81 1009.6
03 16:56 S 12 G 22 10.00 Partly Cloudy SCT110 88 75 66% 98 29.82 1010.0
03 15:56 S 14 G 20 10.00 Mostly Cloudy BKN120 86 75 70% 95 29.83 1010.2
03 14:56 S 13 G 20 10.00 Fair CLR 82.9 73 72% 89 29.82 1010.2
03 13:56 S 12 G 17 10.00 Thunderstorm in Vicinity FEW027 78.1 73.9 87% 81 29.85 1011.0
Date Time (cdt) Wind (mph) Vis. (mi.) Weather Sky Cond. Air Dwpt Max. Min. Relative Humidity Wind Chill (°F) Heat Index (°F) altimeter (in) sea level (mb) 1 hr 3 hr 6 hr
6 hour
Temperature (ºF) Pressure Precipitation (in)